Time;durP1;ratioP1;P1;durP2;ratioP2;P2;SDS_P1;SDS_P2;PMS_P1;PMS_P2;Temp;Humidity;BMP_temperature;BMP_pressure;BME280_temperature;BME280_humidity;BME280_pressure;Samples;Min_cycle;Max_cycle;Signal;HPM_P1;HPM_P2
2022/06/21 01:33:31;;;;;;;;;;;13.70;84.30;;;;;;5051116;28;19972;-66
2022/06/21 01:35:58;;;;;;;;;;;13.80;84.40;;;;;;5035722;28;19998;-66
2022/06/21 01:38:29;;;;;;;;;;;13.90;84.40;;;;;;5035594;28;19913;-67
2022/06/21 01:41:01;;;;;;;;;;;14.00;84.20;;;;;;5053371;28;19920;-66
2022/06/21 01:43:28;;;;;;;;;;;14.10;83.90;;;;;;5035750;28;19909;-66
2022/06/21 01:45:56;;;;;;;;;;;14.10;83.70;;;;;;5035650;28;19999;-67
2022/06/21 01:48:27;;;;;;;;;;;14.20;83.80;;;;;;5053549;28;20004;-66
2022/06/21 01:50:54;;;;;;;;;;;14.20;83.50;;;;;;5035508;28;19966;-67
2022/06/21 01:53:22;;;;;;;;;;;14.20;83.30;;;;;;5035186;28;19921;-66
2022/06/21 01:55:51;;;;;;;;;;;14.30;83.20;;;;;;5053388;28;19909;-66
2022/06/21 01:58:21;;;;;;;;;;;14.40;83.10;;;;;;5035227;28;19944;-66
2022/06/21 02:01:07;;;;;;;;;;;14.50;82.80;;;;;;5035265;28;20008;-66
2022/06/21 02:03:35;;;;;;;;;;;14.50;82.80;;;;;;5052663;28;19983;-67
2022/06/21 02:06:02;;;;;;;;;;;14.50;82.80;;;;;;5035283;28;19909;-67
2022/06/21 02:08:59;;;;;;;;;;;14.60;82.50;;;;;;5053021;28;20324;-67
2022/06/21 02:11:29;;;;;;;;;;;14.70;82.50;;;;;;5030877;28;19912;-67
2022/06/21 02:16:43;;;;;;;;;;;14.80;82.00;;;;;;5037544;28;19916;-67
2022/06/21 02:19:12;;;;;;;;;;;14.90;81.50;;;;;;5052650;28;19944;-67
2022/06/21 02:21:40;;;;;;;;;;;14.90;81.50;;;;;;5035037;28;19960;-67
2022/06/21 02:24:07;;;;;;;;;;;14.90;81.30;;;;;;5034935;28;20371;-67
2022/06/21 02:26:34;;;;;;;;;;;15.00;81.00;;;;;;5052611;28;20243;-67
2022/06/21 02:29:01;;;;;;;;;;;15.00;81.10;;;;;;5034615;28;19940;-67
2022/06/21 02:31:27;;;;;;;;;;;15.00;80.90;;;;;;5052490;28;20460;-67
2022/06/21 02:33:55;;;;;;;;;;;15.10;80.60;;;;;;5052190;28;20371;-67
2022/06/21 02:36:27;;;;;;;;;;;15.20;80.80;;;;;;5052295;28;20321;-67
2022/06/21 02:38:55;;;;;;;;;;;15.20;80.30;;;;;;5052192;28;19933;-67
2022/06/21 02:41:32;;;;;;;;;;;15.30;80.20;;;;;;5052201;28;19909;-67
2022/06/21 02:44:03;;;;;;;;;;;15.30;80.20;;;;;;5034190;28;19913;-67
2022/06/21 02:46:30;;;;;;;;;;;15.30;79.60;;;;;;5034553;28;19919;-67
2022/06/21 02:49:04;;;;;;;;;;;15.40;79.70;;;;;;5034715;28;19999;-67
2022/06/21 02:51:32;;;;;;;;;;;15.40;78.70;;;;;;5034423;28;19920;-67
2022/06/21 02:54:02;;;;;;;;;;;15.40;78.50;;;;;;5034645;28;19924;-67
2022/06/21 02:56:33;;;;;;;;;;;15.50;78.40;;;;;;5052085;28;19916;-67
2022/06/21 02:59:00;;;;;;;;;;;15.60;78.10;;;;;;5034440;28;19932;-67
2022/06/21 03:01:27;;;;;;;;;;;15.60;77.60;;;;;;5052168;28;19909;-67
2022/06/21 03:03:54;;;;;;;;;;;15.60;77.50;;;;;;5051990;28;19909;-67
2022/06/21 03:06:20;;;;;;;;;;;15.60;77.30;;;;;;5052072;28;19923;-67
2022/06/21 03:09:01;;;;;;;;;;;15.70;77.00;;;;;;5034118;28;19948;-67
2022/06/21 03:11:28;;;;;;;;;;;15.70;76.70;;;;;;5034259;28;19909;-67
2022/06/21 03:13:55;;;;;;;;;;;15.70;76.40;;;;;;5034267;28;19999;-67
2022/06/21 03:16:22;;;;;;;;;;;15.80;76.00;;;;;;5034524;28;19909;-67
2022/06/21 03:18:53;;;;;;;;;;;15.90;75.70;;;;;;5034045;28;20401;-67
2022/06/21 03:21:37;;;;;;;;;;;15.90;75.30;;;;;;5034424;28;19934;-68
2022/06/21 03:24:06;;;;;;;;;;;16.00;75.00;;;;;;5034267;28;19970;-67
2022/06/21 03:26:33;;;;;;;;;;;16.00;75.30;;;;;;5034427;28;19917;-67
2022/06/21 03:29:00;;;;;;;;;;;16.00;75.20;;;;;;5033942;28;20003;-67
2022/06/21 03:31:33;;;;;;;;;;;16.00;75.20;;;;;;5051734;28;19920;-67
2022/06/21 03:34:19;;;;;;;;;;;16.10;75.60;;;;;;5034122;28;19940;-67
2022/06/21 03:36:45;;;;;;;;;;;16.10;75.70;;;;;;5034201;28;19909;-67
2022/06/21 03:39:14;;;;;;;;;;;16.20;75.80;;;;;;5051904;28;19915;-67
2022/06/21 03:41:46;;;;;;;;;;;16.20;76.20;;;;;;5034185;28;20410;-67
2022/06/21 03:44:28;;;;;;;;;;;16.20;76.00;;;;;;5034988;28;19959;-67
2022/06/21 03:47:06;;;;;;;;;;;16.20;75.60;;;;;;5051605;28;20282;-65
2022/06/21 03:49:47;;;;;;;;;;;16.20;74.90;;;;;;5051726;28;19909;-66
2022/06/21 03:52:46;;;;;;;;;;;16.20;74.40;;;;;;5051542;28;20034;-66
2022/06/21 03:55:22;;;;;;;;;;;16.20;74.00;;;;;;5051778;28;19916;-65
2022/06/21 03:58:07;;;;;;;;;;;16.20;73.90;;;;;;5037625;28;19916;-66
2022/06/21 04:00:43;;;;;;;;;;;16.20;73.80;;;;;;5055430;28;19909;-66
2022/06/21 04:03:12;;;;;;;;;;;16.20;73.90;;;;;;5055638;28;19908;-66
2022/06/21 04:05:41;;;;;;;;;;;16.20;73.90;;;;;;5037504;28;19909;-66
2022/06/21 04:08:28;;;;;;;;;;;16.20;74.00;;;;;;5037768;28;19909;-66
2022/06/21 04:11:06;;;;;;;;;;;16.20;74.20;;;;;;5055006;28;19912;-66
2022/06/21 04:13:36;;;;;;;;;;;16.20;74.20;;;;;;5032954;28;19921;-66
2022/06/21 04:16:06;;;;;;;;;;;16.20;74.10;;;;;;5046280;28;19964;-67
2022/06/21 04:18:40;;;;;;;;;;;16.20;74.00;;;;;;5030115;28;19979;-67
2022/06/21 04:21:19;;;;;;;;;;;16.20;73.80;;;;;;5037511;28;19974;-68
2022/06/21 04:24:05;;;;;;;;;;;16.20;73.90;;;;;;5037155;28;19954;-67
2022/06/21 04:26:37;;;;;;;;;;;16.30;74.10;;;;;;5051939;28;19920;-67
2022/06/21 04:29:04;;;;;;;;;;;16.30;74.20;;;;;;5037012;28;19915;-67
2022/06/21 04:31:33;;;;;;;;;;;16.30;74.10;;;;;;5054759;28;19971;-68
2022/06/21 04:34:03;;;;;;;;;;;16.30;74.20;;;;;;5036876;28;19970;-68
2022/06/21 04:36:32;;;;;;;;;;;16.30;73.90;;;;;;5051356;28;20283;-68
2022/06/21 04:39:17;;;;;;;;;;;16.40;73.80;;;;;;5037089;28;19916;-64
2022/06/21 04:41:46;;;;;;;;;;;16.40;73.40;;;;;;5046872;28;19913;-66
2022/06/21 04:44:33;;;;;;;;;;;16.50;73.50;;;;;;5054260;28;19970;-67
2022/06/21 04:47:23;;;;;;;;;;;16.70;75.00;;;;;;5042953;28;19917;-67
2022/06/21 04:49:53;;;;;;;;;;;16.80;74.30;;;;;;5040724;28;19909;-68
2022/06/21 04:52:30;;;;;;;;;;;16.80;73.50;;;;;;5054324;28;19955;-66
2022/06/21 04:54:56;;;;;;;;;;;16.80;72.50;;;;;;5034983;28;19962;-67
2022/06/21 04:57:32;;;;;;;;;;;16.80;72.70;;;;;;5032730;28;19913;-67
2022/06/21 04:59:59;;;;;;;;;;;16.70;72.30;;;;;;5051372;28;20279;-67
2022/06/21 05:02:26;;;;;;;;;;;16.80;72.50;;;;;;5041416;28;20015;-67
2022/06/21 05:04:54;;;;;;;;;;;16.70;72.20;;;;;;5034064;28;19912;-66
2022/06/21 05:07:22;;;;;;;;;;;16.80;73.40;;;;;;5052343;28;19920;-66
2022/06/21 05:09:48;;;;;;;;;;;16.80;72.90;;;;;;5035669;28;19920;-67
2022/06/21 05:12:15;;;;;;;;;;;16.80;72.80;;;;;;5057722;28;19921;-67
2022/06/21 05:14:44;;;;;;;;;;;16.80;72.30;;;;;;5056212;28;19920;-67
2022/06/21 05:17:12;;;;;;;;;;;16.70;72.40;;;;;;5041617;28;20057;-67
2022/06/21 05:19:39;;;;;;;;;;;16.70;72.60;;;;;;5031554;28;19967;-67
2022/06/21 05:22:15;;;;;;;;;;;16.70;72.60;;;;;;5043345;28;19920;-67
2022/06/21 05:24:41;;;;;;;;;;;16.70;72.40;;;;;;5042601;28;20291;-67
2022/06/21 05:27:17;;;;;;;;;;;16.70;72.50;;;;;;5046294;28;20406;-67
2022/06/21 05:29:45;;;;;;;;;;;16.70;72.60;;;;;;5051863;28;19913;-67
2022/06/21 05:32:14;;;;;;;;;;;16.70;73.30;;;;;;5043205;28;20415;-67
2022/06/21 05:34:43;;;;;;;;;;;16.60;73.30;;;;;;5057521;28;19912;-67
2022/06/21 05:37:28;;;;;;;;;;;16.60;73.60;;;;;;5048753;28;19916;-67
2022/06/21 05:39:55;;;;;;;;;;;16.60;74.00;;;;;;5055183;28;20397;-67
2022/06/21 05:42:22;;;;;;;;;;;16.70;74.40;;;;;;5063226;28;19958;-67
2022/06/21 05:44:52;;;;;;;;;;;16.70;74.90;;;;;;5047201;28;20341;-67
2022/06/21 11:40:15;;;;;;;;;;;13.80;81.30;;;;;;5037202;28;20011;-70
2022/06/21 11:42:43;;;;;;;;;;;13.80;81.00;;;;;;5049381;28;20411;-70
2022/06/21 11:45:19;;;;;;;;;;;13.90;80.60;;;;;;5030982;28;19943;-72
2022/06/21 11:47:46;;;;;;;;;;;13.90;80.50;;;;;;5012424;28;19944;-74
2022/06/21 11:50:31;;;;;;;;;;;13.90;80.60;;;;;;5049356;28;19924;-70
2022/06/21 11:53:20;;;;;;;;;;;13.90;80.80;;;;;;5038792;28;19964;-69
2022/06/21 11:55:52;;;;;;;;;;;13.80;80.80;;;;;;5048916;28;19951;-70
2022/06/21 11:58:42;;;;;;;;;;;13.80;79.80;;;;;;5030607;28;19905;-70
2022/06/21 12:01:08;;;;;;;;;;;13.80;79.80;;;;;;5042242;28;19913;-69
2022/06/21 12:03:41;;;;;;;;;;;13.80;79.50;;;;;;5048648;28;19987;-69
2022/06/21 12:06:20;;;;;;;;;;;13.80;79.80;;;;;;5049186;28;20371;-72
2022/06/21 12:08:55;;;;;;;;;;;13.70;79.90;;;;;;5038461;28;19963;-70
2022/06/21 12:11:37;;;;;;;;;;;13.70;79.90;;;;;;5031223;28;19912;-69
2022/06/21 12:14:23;;;;;;;;;;;13.70;80.10;;;;;;5048576;28;19917;-70
2022/06/21 12:16:52;;;;;;;;;;;13.70;80.40;;;;;;5050181;28;19909;-71
2022/06/21 12:19:27;;;;;;;;;;;13.60;80.40;;;;;;5052647;28;19952;-72
2022/06/21 12:22:17;;;;;;;;;;;13.60;80.30;;;;;;5034717;28;19913;-72
2022/06/21 12:24:43;;;;;;;;;;;13.60;80.00;;;;;;5022418;28;20379;-73
2022/06/21 12:27:10;;;;;;;;;;;13.60;80.10;;;;;;5028550;28;19912;-72
2022/06/21 12:29:37;;;;;;;;;;;13.60;80.40;;;;;;5034771;28;19956;-71
2022/06/21 12:32:05;;;;;;;;;;;13.50;80.50;;;;;;5032872;28;19927;-74
2022/06/21 12:34:41;;;;;;;;;;;13.50;81.10;;;;;;5034909;28;19916;-69
2022/06/21 12:37:25;;;;;;;;;;;13.40;81.60;;;;;;5052355;28;19953;-69
2022/06/21 12:40:06;;;;;;;;;;;13.30;81.70;;;;;;4997766;28;19922;-70
2022/06/21 12:42:51;;;;;;;;;;;13.30;81.90;;;;;;5011054;28;19959;-70
2022/06/21 12:45:18;;;;;;;;;;;13.20;82.00;;;;;;5013311;28;19932;-72
2022/06/21 12:47:53;;;;;;;;;;;13.30;81.70;;;;;;5014758;28;19921;-72
2022/06/21 12:50:33;;;;;;;;;;;13.20;81.70;;;;;;5015020;28;20264;-72
2022/06/21 12:53:22;;;;;;;;;;;13.20;81.60;;;;;;5013685;28;19925;-72
2022/06/21 12:56:07;;;;;;;;;;;13.20;81.50;;;;;;5009499;28;19916;-72
2022/06/21 12:58:57;;;;;;;;;;;13.20;81.80;;;;;;5014503;28;20003;-72
2022/06/21 13:01:26;;;;;;;;;;;13.20;81.90;;;;;;5006709;28;19910;-72
2022/06/21 13:03:53;;;;;;;;;;;13.20;81.70;;;;;;5013820;28;19921;-72
2022/06/21 13:06:19;;;;;;;;;;;13.20;81.80;;;;;;5014601;28;19963;-72
2022/06/21 13:08:54;;;;;;;;;;;13.10;81.90;;;;;;5014074;28;20004;-72
2022/06/21 13:11:30;;;;;;;;;;;13.00;81.60;;;;;;5013660;28;19909;-72
2022/06/21 13:14:03;;;;;;;;;;;13.00;82.10;;;;;;5013343;28;19996;-72
2022/06/21 13:16:40;;;;;;;;;;;13.00;82.20;;;;;;5014687;28;19914;-72
2022/06/21 13:19:25;;;;;;;;;;;12.90;82.60;;;;;;4981028;28;19918;-72
2022/06/21 13:22:00;;;;;;;;;;;12.80;82.90;;;;;;5014320;28;19914;-73
2022/06/21 13:24:35;;;;;;;;;;;12.90;82.60;;;;;;5013082;28;19909;-72
2022/06/21 13:27:11;;;;;;;;;;;13.00;82.00;;;;;;5014092;28;19964;-72
2022/06/21 13:29:37;;;;;;;;;;;13.00;81.30;;;;;;5014513;28;19913;-72
2022/06/21 13:32:08;;;;;;;;;;;13.00;81.40;;;;;;5014600;28;19964;-73
2022/06/21 13:34:34;;;;;;;;;;;13.00;81.30;;;;;;5007895;28;20298;-72
2022/06/21 13:37:07;;;;;;;;;;;13.10;81.20;;;;;;5013863;28;19914;-72
2022/06/21 13:39:43;;;;;;;;;;;13.00;81.00;;;;;;5024624;28;19979;-72
2022/06/21 13:44:59;;;;;;;;;;;13.00;80.10;;;;;;5038783;28;20370;-72
2022/06/21 13:47:27;;;;;;;;;;;13.10;79.90;;;;;;5053649;28;19920;-72
2022/06/21 13:49:56;;;;;;;;;;;13.00;79.10;;;;;;5035396;28;19909;-72
2022/06/21 13:52:46;;;;;;;;;;;13.10;78.70;;;;;;5044787;28;19948;-72
2022/06/21 13:55:30;;;;;;;;;;;13.10;78.00;;;;;;5047691;28;19909;-72
2022/06/21 13:58:13;;;;;;;;;;;13.20;76.70;;;;;;5053169;28;19909;-72
2022/06/21 14:00:45;;;;;;;;;;;13.20;76.10;;;;;;5025143;28;19917;-72
2022/06/21 14:03:21;;;;;;;;;;;13.20;76.00;;;;;;5035447;28;19916;-72
2022/06/21 14:05:54;;;;;;;;;;;13.20;75.60;;;;;;5053596;28;20377;-72
2022/06/21 14:08:25;;;;;;;;;;;13.20;75.30;;;;;;5051269;28;19917;-72
2022/06/21 14:10:53;;;;;;;;;;;13.30;74.70;;;;;;5030009;28;19952;-72
2022/06/21 14:13:26;;;;;;;;;;;13.30;74.70;;;;;;5053213;28;19917;-72
2022/06/21 14:16:11;;;;;;;;;;;13.20;74.70;;;;;;5052987;28;20290;-72
2022/06/21 14:18:53;;;;;;;;;;;13.20;74.90;;;;;;5035074;28;19956;-72
2022/06/21 14:21:40;;;;;;;;;;;13.20;74.40;;;;;;5028637;28;19909;-72
2022/06/21 14:24:12;;;;;;;;;;;13.20;74.20;;;;;;5052629;28;20000;-72
2022/06/21 14:26:48;;;;;;;;;;;13.20;73.30;;;;;;5040665;28;19913;-72
2022/06/21 14:29:15;;;;;;;;;;;13.20;73.00;;;;;;5049409;28;19917;-72
2022/06/21 14:31:56;;;;;;;;;;;13.20;73.20;;;;;;5052990;28;19920;-72
2022/06/21 14:34:33;;;;;;;;;;;13.20;73.50;;;;;;5018652;28;19932;-72
2022/06/21 14:37:03;;;;;;;;;;;13.10;73.30;;;;;;5032272;28;19984;-72
2022/06/21 14:39:35;;;;;;;;;;;13.10;73.50;;;;;;5048874;28;19956;-72
2022/06/21 14:42:20;;;;;;;;;;;13.00;73.00;;;;;;5035304;28;19909;-72
2022/06/21 14:44:56;;;;;;;;;;;13.00;72.40;;;;;;5052869;28;19916;-71
2022/06/21 14:47:40;;;;;;;;;;;13.00;71.60;;;;;;5050059;28;20004;-72
2022/06/21 14:50:25;;;;;;;;;;;13.10;71.60;;;;;;5025968;28;19921;-72
2022/06/21 14:52:51;;;;;;;;;;;13.10;71.10;;;;;;5052286;28;19917;-72
2022/06/21 14:55:19;;;;;;;;;;;13.00;70.90;;;;;;5052476;28;19963;-72
2022/06/21 14:57:49;;;;;;;;;;;13.00;71.50;;;;;;5052660;28;19952;-72
2022/06/21 15:00:30;;;;;;;;;;;13.00;71.00;;;;;;5024934;28;20367;-72
2022/06/21 15:03:00;;;;;;;;;;;13.00;70.90;;;;;;5047576;28;20007;-72
2022/06/21 15:05:26;;;;;;;;;;;12.90;71.00;;;;;;5031135;28;19917;-72
2022/06/21 15:07:59;;;;;;;;;;;12.90;71.00;;;;;;5051529;28;19960;-72
2022/06/21 15:10:28;;;;;;;;;;;12.90;70.80;;;;;;5052084;28;19912;-72
2022/06/21 15:12:57;;;;;;;;;;;12.90;71.20;;;;;;5052221;28;19916;-72
2022/06/21 15:15:24;;;;;;;;;;;12.90;71.00;;;;;;5033887;28;19932;-72
2022/06/21 15:18:05;;;;;;;;;;;12.80;70.30;;;;;;5029306;28;20008;-72
2022/06/21 15:20:41;;;;;;;;;;;12.80;70.70;;;;;;5047230;28;19916;-72
2022/06/21 15:23:08;;;;;;;;;;;12.80;70.50;;;;;;5034483;28;19909;-72
2022/06/21 15:25:54;;;;;;;;;;;12.90;70.50;;;;;;5051914;28;19912;-71
2022/06/21 15:28:32;;;;;;;;;;;12.80;70.40;;;;;;5045188;28;19912;-72
2022/06/21 15:31:05;;;;;;;;;;;12.80;70.60;;;;;;5028201;28;19913;-72
2022/06/21 15:33:33;;;;;;;;;;;12.80;70.60;;;;;;5052060;28;19952;-72
2022/06/21 15:35:59;;;;;;;;;;;12.80;70.50;;;;;;5034120;28;20004;-72
2022/06/21 15:38:27;;;;;;;;;;;12.80;70.40;;;;;;5046063;28;19921;-72
2022/06/21 15:40:54;;;;;;;;;;;12.80;70.40;;;;;;5034321;28;19909;-72
2022/06/21 15:43:29;;;;;;;;;;;12.80;70.30;;;;;;5034732;28;19909;-72
2022/06/21 15:45:58;;;;;;;;;;;12.80;70.20;;;;;;5034362;28;19915;-72
2022/06/21 15:51:23;;;;;;;;;;;12.80;70.10;;;;;;5038317;28;19955;-72
2022/06/21 15:54:08;;;;;;;;;;;12.70;69.80;;;;;;5046277;28;19920;-72
2022/06/21 15:56:34;;;;;;;;;;;12.70;70.10;;;;;;5055760;28;19909;-72
2022/06/21 15:59:10;;;;;;;;;;;12.70;69.90;;;;;;5055469;28;19916;-72
2022/06/21 16:01:58;;;;;;;;;;;12.70;70.70;;;;;;5055616;28;19912;-72
2022/06/21 16:04:30;;;;;;;;;;;12.80;70.60;;;;;;5027766;28;20027;-72
2022/06/21 16:07:01;;;;;;;;;;;12.70;70.20;;;;;;5048459;28;19917;-72
2022/06/21 16:09:28;;;;;;;;;;;12.70;69.90;;;;;;5037555;28;19908;-72
2022/06/21 16:11:56;;;;;;;;;;;12.70;69.90;;;;;;5052555;28;20343;-72
2022/06/21 16:14:43;;;;;;;;;;;12.70;70.00;;;;;;5037626;28;19916;-72
2022/06/21 16:17:14;;;;;;;;;;;12.70;70.00;;;;;;5055146;28;20377;-72
2022/06/21 16:19:48;;;;;;;;;;;12.70;69.90;;;;;;5030957;28;20000;-72
2022/06/21 16:22:15;;;;;;;;;;;12.70;70.30;;;;;;5050763;28;20028;-72
2022/06/21 16:24:43;;;;;;;;;;;12.70;70.40;;;;;;5055580;28;19916;-71
2022/06/21 16:27:09;;;;;;;;;;;12.60;70.50;;;;;;5037515;28;19939;-72
2022/06/21 16:29:56;;;;;;;;;;;12.60;70.00;;;;;;5055366;28;19963;-72
2022/06/21 16:35:09;;;;;;;;;;;12.50;70.50;;;;;;5052261;28;20263;-72
2022/06/21 16:37:43;;;;;;;;;;;12.50;70.30;;;;;;5054738;28;20334;-72
2022/06/21 16:42:54;;;;;;;;;;;12.50;70.30;;;;;;5034847;28;19921;-72
2022/06/21 16:43:14;;;;;;;;;;;12.50;70.60;;;;;;5039412;28;19913;-71
2022/06/21 16:45:43;;;;;;;;;;;12.50;70.40;;;;;;5048327;28;19909;-72
2022/06/21 16:48:28;;;;;;;;;;;12.40;70.30;;;;;;5054413;28;19912;-71
2022/06/21 16:50:58;;;;;;;;;;;12.40;70.60;;;;;;5053845;28;19912;-72
2022/06/21 16:53:26;;;;;;;;;;;12.40;70.60;;;;;;5036418;28;20614;-72
2022/06/21 16:56:05;;;;;;;;;;;12.40;70.70;;;;;;5034497;28;19909;-72
2022/06/21 16:58:48;;;;;;;;;;;12.40;70.60;;;;;;5034615;28;19959;-72
2022/06/21 17:01:16;;;;;;;;;;;12.30;70.80;;;;;;5028632;28;19968;-72
2022/06/21 17:03:48;;;;;;;;;;;12.30;70.90;;;;;;5016259;28;20003;-71
2022/06/21 17:06:41;;;;;;;;;;;12.20;71.20;;;;;;5017034;28;19952;-72
2022/06/21 17:09:10;;;;;;;;;;;12.20;71.30;;;;;;5032122;28;19960;-72
2022/06/21 17:11:37;;;;;;;;;;;12.20;71.00;;;;;;5033785;28;19913;-72
2022/06/21 17:14:07;;;;;;;;;;;12.20;71.50;;;;;;5015492;28;20008;-72
2022/06/21 17:16:41;;;;;;;;;;;12.20;71.20;;;;;;5017279;28;20417;-72
2022/06/21 17:19:14;;;;;;;;;;;12.20;71.00;;;;;;5016445;28;19909;-72
2022/06/21 17:21:43;;;;;;;;;;;12.20;72.10;;;;;;5021057;28;19913;-72
2022/06/21 17:24:24;;;;;;;;;;;12.10;73.00;;;;;;5016659;28;19945;-72
2022/06/21 17:26:59;;;;;;;;;;;12.00;73.30;;;;;;5021326;28;19913;-72
2022/06/21 17:29:47;;;;;;;;;;;12.00;73.20;;;;;;5034083;28;19913;-72
2022/06/21 17:32:15;;;;;;;;;;;11.90;73.00;;;;;;5016704;28;19915;-72
2022/06/21 17:35:20;;;;;;;;;;;12.00;72.80;;;;;;5016394;28;19949;-72
2022/06/21 17:37:54;;;;;;;;;;;11.90;72.80;;;;;;4992356;28;19916;-72
2022/06/21 17:40:39;;;;;;;;;;;11.80;72.80;;;;;;4975525;28;20009;-72
2022/06/21 17:43:11;;;;;;;;;;;11.80;73.10;;;;;;5006496;28;20302;-72
2022/06/21 17:45:42;;;;;;;;;;;11.90;73.20;;;;;;4999981;28;20364;-72
2022/06/21 17:48:10;;;;;;;;;;;11.70;73.10;;;;;;5016073;28;20430;-72
2022/06/21 17:50:36;;;;;;;;;;;11.70;73.30;;;;;;5033991;28;19909;-72
2022/06/21 17:53:06;;;;;;;;;;;11.70;73.30;;;;;;5033407;28;19974;-72
2022/06/21 17:55:42;;;;;;;;;;;11.70;73.30;;;;;;5033862;28;20008;-72
2022/06/21 17:58:13;;;;;;;;;;;11.70;73.30;;;;;;5016034;28;19924;-72
2022/06/21 18:00:51;;;;;;;;;;;11.70;73.30;;;;;;5015795;28;19909;-72
2022/06/21 18:03:24;;;;;;;;;;;11.60;73.60;;;;;;5033538;28;19913;-72
2022/06/21 18:05:53;;;;;;;;;;;11.60;73.80;;;;;;5033412;28;19992;-72
2022/06/21 18:08:38;;;;;;;;;;;11.50;73.80;;;;;;5033178;28;20376;-72
2022/06/21 18:11:25;;;;;;;;;;;11.60;74.00;;;;;;5033131;28;20329;-72
2022/06/21 18:13:55;;;;;;;;;;;11.50;74.00;;;;;;5014727;28;20358;-72
2022/06/21 18:16:22;;;;;;;;;;;11.50;74.20;;;;;;5015289;28;20395;-72
2022/06/21 18:19:03;;;;;;;;;;;11.50;74.40;;;;;;5033064;28;20287;-72
2022/06/21 18:21:31;;;;;;;;;;;11.40;74.10;;;;;;5021382;28;19945;-72
2022/06/21 18:24:16;;;;;;;;;;;11.40;74.30;;;;;;5015437;28;19917;-72
2022/06/21 18:26:44;;;;;;;;;;;11.40;74.30;;;;;;5030167;28;20342;-72
2022/06/21 18:29:17;;;;;;;;;;;11.40;74.30;;;;;;5015113;28;19996;-72
2022/06/21 18:31:47;;;;;;;;;;;11.30;74.40;;;;;;5032315;28;19909;-72
2022/06/21 18:34:16;;;;;;;;;;;11.30;74.50;;;;;;5032169;28;20020;-72
2022/06/21 18:36:42;;;;;;;;;;;11.30;74.30;;;;;;5014763;28;19924;-72
2022/06/21 18:39:09;;;;;;;;;;;11.30;74.40;;;;;;5032311;28;19921;-72
2022/06/21 18:41:39;;;;;;;;;;;11.20;74.30;;;;;;5032493;28;20260;-72
2022/06/21 18:44:12;;;;;;;;;;;11.20;74.10;;;;;;5015207;28;19913;-72
2022/06/21 18:46:39;;;;;;;;;;;11.20;74.30;;;;;;5032595;28;19909;-71
2022/06/21 18:49:21;;;;;;;;;;;11.20;74.40;;;;;;5032845;28;19909;-72
2022/06/21 18:51:54;;;;;;;;;;;11.20;74.40;;;;;;5031852;28;19987;-72
2022/06/21 18:54:36;;;;;;;;;;;11.20;74.20;;;;;;5019254;28;19922;-72
2022/06/21 18:57:21;;;;;;;;;;;11.20;74.30;;;;;;5030735;28;20260;-72
2022/06/21 18:59:54;;;;;;;;;;;11.20;74.70;;;;;;5025816;28;19909;-72
2022/06/21 19:02:39;;;;;;;;;;;11.20;74.90;;;;;;5014978;28;20356;-72
2022/06/21 19:11:02;;;;;;;;;;;11.10;74.60;;;;;;5031744;28;20390;-72
2022/06/21 19:13:31;;;;;;;;;;;11.10;74.70;;;;;;5029713;28;19928;-73
2022/06/21 19:16:17;;;;;;;;;;;11.10;74.60;;;;;;5014158;28;19909;-73
2022/06/21 19:18:56;;;;;;;;;;;11.10;74.90;;;;;;5031603;28;19909;-73
2022/06/21 19:21:23;;;;;;;;;;;11.00;74.80;;;;;;5031769;28;19936;-72
2022/06/21 19:24:01;;;;;;;;;;;11.10;74.80;;;;;;5031792;28;19920;-72
2022/06/21 19:26:28;;;;;;;;;;;11.00;74.90;;;;;;5031460;28;19916;-72
2022/06/21 19:29:07;;;;;;;;;;;11.00;74.60;;;;;;5031873;28;20375;-72
2022/06/21 19:31:39;;;;;;;;;;;11.00;75.40;;;;;;5032532;28;19920;-72
2022/06/21 19:34:24;;;;;;;;;;;10.90;75.10;;;;;;5031987;28;19925;-72
2022/06/21 19:36:56;;;;;;;;;;;10.90;75.10;;;;;;5032032;28;19915;-72
2022/06/21 19:39:40;;;;;;;;;;;10.90;75.00;;;;;;5031882;28;20088;-72
2022/06/21 19:42:13;;;;;;;;;;;10.90;75.30;;;;;;5032613;28;20274;-72
2022/06/21 19:44:45;;;;;;;;;;;10.90;75.30;;;;;;5032255;28;19909;-72
2022/06/21 19:47:24;;;;;;;;;;;10.80;76.30;;;;;;5032258;28;19913;-72
2022/06/21 19:49:50;;;;;;;;;;;10.80;76.40;;;;;;5032030;28;19913;-72
2022/06/21 19:52:20;;;;;;;;;;;10.80;76.40;;;;;;5014284;28;20278;-72
2022/06/21 19:54:50;;;;;;;;;;;10.70;76.90;;;;;;5013758;28;19917;-72
2022/06/21 19:57:34;;;;;;;;;;;10.70;76.50;;;;;;5031697;28;19913;-72
2022/06/21 20:00:20;;;;;;;;;;;10.70;76.60;;;;;;5031890;28;19913;-72
2022/06/21 22:12:00;;;;;;;;;;;10.70;77.30;;;;;;5046083;28;20176;-73
2022/06/21 22:14:33;;;;;;;;;;;10.70;78.10;;;;;;5072243;28;19924;-73
2022/06/21 22:17:35;;;;;;;;;;;10.70;77.80;;;;;;5072798;28;19912;-73
2022/06/21 22:20:13;;;;;;;;;;;10.70;77.50;;;;;;4981141;28;19925;-73
2022/06/21 22:22:43;;;;;;;;;;;10.80;77.30;;;;;;5062154;28;20374;-73
2022/06/21 22:25:33;;;;;;;;;;;10.80;77.10;;;;;;5073139;28;19913;-73
2022/06/21 22:28:00;;;;;;;;;;;10.80;76.80;;;;;;5061954;28;19908;-73
2022/06/21 22:30:37;;;;;;;;;;;10.90;76.70;;;;;;5055709;28;20431;-73
2022/06/21 22:33:06;;;;;;;;;;;10.90;76.60;;;;;;5072616;28;19927;-73
2022/06/21 22:35:35;;;;;;;;;;;11.00;76.60;;;;;;5055395;28;19952;-73
2022/06/21 22:38:02;;;;;;;;;;;11.00;76.80;;;;;;5054283;28;19908;-73
2022/06/21 22:40:36;;;;;;;;;;;11.00;76.70;;;;;;5054334;28;19909;-73
2022/06/21 22:43:08;;;;;;;;;;;11.10;76.50;;;;;;5054798;28;20366;-72
2022/06/21 22:45:36;;;;;;;;;;;11.10;76.10;;;;;;5072574;28;20347;-73
2022/06/21 22:48:04;;;;;;;;;;;11.10;76.00;;;;;;5054679;28;19991;-73
2022/06/21 22:50:38;;;;;;;;;;;11.20;75.90;;;;;;5054517;28;19909;-73
2022/06/21 22:53:05;;;;;;;;;;;11.20;75.80;;;;;;5054274;28;19921;-73
2022/06/21 22:55:38;;;;;;;;;;;11.20;75.60;;;;;;5037790;28;19920;-73
2022/06/21 22:58:06;;;;;;;;;;;11.20;75.90;;;;;;5054519;28;19958;-72
2022/06/21 23:00:33;;;;;;;;;;;11.30;75.30;;;;;;5050873;28;19919;-73
2022/06/21 23:03:03;;;;;;;;;;;11.30;75.10;;;;;;5043476;28;19931;-73
2022/06/21 23:05:33;;;;;;;;;;;11.30;74.90;;;;;;5054035;28;20367;-73
2022/06/21 23:08:10;;;;;;;;;;;11.40;74.70;;;;;;5072642;28;19938;-73
2022/06/21 23:10:37;;;;;;;;;;;11.40;74.80;;;;;;5037911;28;20408;-73
